Details From CYEV - Inuvik Mike Zubko
To CYVQ - Norman Wells
Flight Number -
Tags Decoded
Created
Modified
Stats Distance 240 nm / 445 km
Max Altitude 0 ft / 0 m
Waypoints 2
Social Downloads 1
Likes 0
Share VATSIM

Download

Looking for another format? Having issues loading an existing format? Contact us
Advertisement - Login to hide

Notes

Decoded

Route

CYEV CYVQ

ID Type Via Altitude Latitude Longitude Leg Dist Tot Dist Heading (true) Name
O CYEV APT - 0 ft / 0 m 68.30319˚ -133.50528˚ - 0 nm - -
O CYVQ APT - 0 ft / 0 m 65.28556˚ -126.81539˚ 240 nm 240 nm 136° / 142° -

Altitude Profile

Advertisement - Login to hide

Weather


0- 5 10 15 20 25 30 35+ Temperature / ° C

Clouds and Precipitation
Forecast for 2017-12-13 12:00 UTC. Updated 16 minutes ago

Ground ~20,000 ft ~40,000 ft Winds

CYEV

Details ICAO CYEV (YEV)
Name INUVIK MIKE ZUBKO
Region Canada
Timezone America/Inuvik (UTC-7.0)
Stats Elevation 224 ft / 68 m (AMSL)
Location 68.303792° -133.483167°
Runways 1
Magnetic Variation 21.602° E

METAR

CYEV 130700Z 08005KT 15SM IC OVC003 M17/M19 A3010 RMK ST8 SLP202

Decode

TAF

TAF CYEV 130638Z 1307/1319 06005KT P6SM IC BKN003 TEMPO 1307/1319 P6SM NSW BKN006 RMK NXT FCST BY 131300Z

Decode

Departure Runways

ID Width Length Bearing (true) Bearing (mag) Surface Threshold Offset Overrun Length
06 150 ft / 46 m 5,982 ft / 1,823 m 85.80° 64.20° Asphalt 0 ft / 0 m 0 ft / 0 m
24 150 ft / 46 m 5,982 ft / 1,823 m 265.84° 244.24° Asphalt 0 ft / 0 m 0 ft / 0 m

CYVQ

Details ICAO CYVQ (YVQ)
Name NORMAN WELLS
Region Canada
Timezone America/Yellowknife (UTC-7.0)
Stats Elevation 238 ft / 73 m (AMSL)
Location 65.281616° -126.798222°
Runways 1
Magnetic Variation 21.034° E

METAR

CYVQ 130700Z 00000KT 15SM IC FEW013 BKN150 BKN240 M14/M16 A3011 RMK SC1AC6CI1 SC TR CIG RAG SLP206

Decode

TAF

TAF TAF CYVQ 130538Z 1306/1318 28005KT P6SM IC BKN130 TEMPO 1306/1309 BKN090 FM130900 VRB03KT P6SM SCT012 TEMPO 1309/1314 P6SM -SN BKN012 BECMG 1316/1318 12007KT RMK NXT FCST BY 131200Z

Decode

Destination Runways

ID Width Length Bearing (true) Bearing (mag) Surface Threshold Offset Overrun Length
09 150 ft / 46 m 5,977 ft / 1,822 m 118.74° 97.71° Asphalt 0 ft / 0 m 0 ft / 0 m
27 150 ft / 46 m 5,977 ft / 1,822 m 298.78° 277.75° Asphalt 0 ft / 0 m 0 ft / 0 m

Popular Alternatives